createdAt,value
2019-04-25T00:01:31.942Z,12.30
2019-04-25T00:04:16.102Z,12.30
2019-04-25T00:06:52.251Z,12.30
2019-04-25T00:09:23.422Z,12.30
2019-04-25T00:11:54.422Z,12.20
2019-04-25T00:14:25.754Z,12.20
2019-04-25T00:17:01.745Z,12.20
2019-04-25T00:19:31.708Z,12.10
2019-04-25T00:22:16.241Z,12.00
2019-04-25T00:24:59.059Z,12.00
2019-04-25T00:27:27.987Z,12.00
2019-04-25T00:29:57.547Z,11.90
2019-04-25T00:32:28.455Z,11.90
2019-04-25T00:34:57.588Z,11.90
2019-04-25T00:37:27.005Z,11.80
2019-04-25T00:39:57.787Z,11.80
2019-04-25T00:42:34.164Z,11.80
2019-04-25T00:45:03.160Z,11.80
2019-04-25T00:47:32.049Z,11.70
2019-04-25T00:50:02.286Z,11.70
2019-04-25T00:52:31.535Z,11.70
2019-04-25T00:55:01.894Z,11.60
2019-04-25T00:57:32.094Z,11.60
2019-04-25T01:00:18.679Z,11.50
2019-04-25T01:02:52.489Z,11.50
2019-04-25T01:05:21.652Z,11.50
2019-04-25T01:07:52.453Z,11.40
2019-04-25T01:10:24.356Z,11.40
2019-04-25T01:12:53.332Z,11.40
2019-04-25T01:15:22.790Z,11.40
2019-04-25T01:17:52.601Z,11.40
2019-04-25T01:20:23.872Z,11.30
2019-04-25T01:22:54.270Z,11.40
2019-04-25T01:25:23.917Z,11.30
2019-04-25T01:27:53.905Z,11.30
2019-04-25T01:30:25.714Z,11.30
2019-04-25T01:32:55.418Z,11.30
2019-04-25T01:35:47.374Z,11.20
2019-04-25T01:38:34.194Z,11.20
2019-04-25T01:41:11.273Z,11.10
2019-04-25T01:43:45.889Z,11.10
2019-04-25T01:46:15.443Z,11.10
2019-04-25T01:48:44.553Z,11.00
2019-04-25T01:51:14.265Z,11.00
2019-04-25T01:53:44.170Z,10.90
2019-04-25T01:56:14.913Z,10.90
2019-04-25T01:58:43.955Z,10.90
2019-04-25T02:01:14.408Z,10.90
2019-04-25T02:03:44.215Z,10.90
2019-04-25T02:06:15.643Z,10.90
2019-04-25T02:08:44.571Z,10.80
2019-04-25T02:11:35.161Z,10.80
2019-04-25T02:14:05.384Z,10.80
2019-04-25T02:16:35.401Z,10.70
2019-04-25T02:19:05.221Z,10.70
2019-04-25T02:21:34.556Z,10.70
2019-04-25T02:24:04.336Z,10.70
2019-04-25T02:26:34.530Z,10.70
2019-04-25T02:29:04.886Z,10.70
2019-04-25T02:31:34.814Z,10.70
2019-04-25T02:34:08.196Z,10.70
2019-04-25T02:36:35.160Z,10.60
2019-04-25T02:39:09.170Z,10.60
2019-04-25T02:41:38.229Z,10.60
2019-04-25T02:44:09.973Z,10.60
2019-04-25T02:47:00.951Z,10.50
2019-04-25T02:50:07.503Z,10.60
2019-04-25T02:52:40.915Z,10.50
2019-04-25T02:55:11.440Z,10.50
2019-04-25T02:57:41.996Z,10.50
2019-04-25T03:00:19.319Z,10.50
2019-04-25T03:02:48.324Z,10.50
2019-04-25T03:05:17.687Z,10.50
2019-04-25T03:07:46.623Z,10.50
2019-04-25T03:10:16.260Z,10.40
2019-04-25T03:12:45.262Z,10.40
2019-04-25T03:15:14.563Z,10.30
2019-04-25T03:17:44.477Z,10.30
2019-04-25T03:20:30.160Z,10.30
2019-04-25T03:23:09.504Z,10.30
2019-04-25T03:25:43.502Z,10.20
2019-04-25T03:28:13.496Z,10.20
2019-04-25T03:30:44.911Z,10.30
2019-04-25T03:33:19.471Z,10.30
2019-04-25T03:35:47.562Z,10.40
2019-04-25T03:38:16.618Z,10.40
2019-04-25T03:40:45.598Z,10.50
2019-04-25T03:43:14.987Z,10.40
2019-04-25T03:45:45.299Z,10.40
2019-04-25T03:48:14.454Z,10.40
2019-04-25T03:50:44.171Z,10.40
2019-04-25T03:53:13.930Z,10.40
2019-04-25T03:55:44.352Z,10.40
2019-04-25T03:58:14.609Z,10.40
2019-04-25T04:00:44.767Z,10.40
2019-04-25T04:03:15.097Z,10.40
2019-04-25T04:05:44.299Z,10.40
2019-04-25T04:08:15.702Z,10.50
2019-04-25T04:10:43.846Z,10.50
2019-04-25T04:13:14.619Z,10.50
2019-04-25T04:15:43.593Z,10.50
2019-04-25T04:18:17.684Z,10.50
2019-04-25T04:20:55.627Z,10.60
2019-04-25T04:23:30.328Z,10.60
2019-04-25T04:25:59.328Z,10.70
2019-04-25T04:28:28.366Z,10.70
2019-04-25T04:30:57.356Z,10.70
2019-04-25T04:33:32.210Z,10.70
2019-04-25T04:35:56.951Z,10.80
2019-04-25T04:38:25.855Z,10.80
2019-04-25T04:40:55.164Z,10.80
2019-04-25T04:43:25.658Z,10.80
2019-04-25T04:45:54.649Z,10.90
2019-04-25T04:48:23.507Z,10.90
2019-04-25T04:50:53.492Z,10.90
2019-04-25T04:53:23.511Z,11.00
2019-04-25T04:55:54.307Z,11.00
2019-04-25T04:58:24.967Z,11.10
2019-04-25T05:00:54.190Z,11.10
2019-04-25T05:03:44.980Z,11.10
2019-04-25T05:06:25.174Z,11.20
2019-04-25T05:08:58.105Z,11.20
2019-04-25T05:11:27.107Z,11.20
2019-04-25T05:13:56.046Z,11.20
2019-04-25T05:16:24.911Z,11.30
2019-04-25T05:18:55.353Z,11.30
2019-04-25T05:21:25.207Z,11.40
2019-04-25T05:23:54.506Z,11.40
2019-04-25T05:26:24.935Z,11.50
2019-04-25T05:28:56.825Z,11.60
2019-04-25T05:31:31.897Z,11.70
2019-04-25T05:34:00.924Z,11.80
2019-04-25T05:36:37.462Z,11.90
2019-04-25T05:39:09.505Z,12.00
2019-04-25T05:42:05.194Z,12.00
2019-04-25T05:44:34.874Z,12.00
2019-04-25T05:47:04.215Z,12.10
2019-04-25T05:49:36.409Z,12.20
2019-04-25T05:52:05.508Z,12.20
2019-04-25T05:54:34.650Z,12.30
2019-04-25T05:57:03.750Z,12.30
2019-04-25T05:59:33.766Z,12.30
2019-04-25T06:02:03.939Z,12.20
2019-04-25T06:04:33.591Z,12.20
2019-04-25T06:07:03.062Z,12.20
2019-04-25T06:09:54.571Z,12.20
2019-04-25T06:12:38.359Z,12.20
2019-04-25T06:15:11.014Z,12.20
2019-04-25T06:17:58.596Z,12.30
2019-04-25T06:20:37.205Z,12.30
2019-04-25T06:23:15.636Z,12.50
2019-04-25T06:25:44.646Z,12.80
2019-04-25T06:28:15.728Z,13.10
2019-04-25T06:30:44.628Z,13.50
2019-04-25T06:33:13.580Z,14.30
2019-04-25T06:35:44.077Z,14.40
2019-04-25T06:38:13.451Z,14.30
2019-04-25T06:40:43.711Z,14.30
2019-04-25T06:43:13.423Z,14.10
2019-04-25T06:46:02.014Z,14.00
2019-04-25T06:48:37.959Z,14.00
2019-04-25T06:51:06.987Z,13.90
2019-04-25T06:53:36.225Z,14.00
2019-04-25T06:56:05.780Z,14.00
2019-04-25T06:58:34.879Z,13.80
2019-04-25T07:01:03.875Z,13.70
2019-04-25T07:03:35.256Z,13.60
2019-04-25T07:06:04.312Z,13.40
2019-04-25T07:08:34.940Z,13.30
2019-04-25T07:11:03.963Z,13.20
2019-04-25T07:13:35.569Z,13.20
2019-04-25T07:16:04.670Z,13.20
2019-04-25T07:18:36.330Z,13.20
2019-04-25T07:21:04.707Z,13.20
2019-04-25T07:23:34.633Z,13.10
2019-04-25T07:26:19.549Z,13.10
2019-04-25T07:29:00.328Z,13.00
2019-04-25T07:31:40.758Z,13.00
2019-04-25T07:34:18.656Z,13.00
2019-04-25T07:36:47.712Z,12.90
2019-04-25T07:39:16.700Z,12.90
2019-04-25T07:41:45.684Z,12.90
2019-04-25T07:44:14.875Z,12.90
2019-04-25T07:46:43.963Z,12.90
2019-04-25T07:49:13.451Z,13.00
2019-04-25T07:51:43.218Z,13.10
2019-04-25T07:54:14.310Z,13.20
2019-04-25T07:56:43.721Z,13.30
2019-04-25T07:59:13.934Z,13.40
2019-04-25T08:01:43.721Z,13.40
2019-04-25T08:04:13.638Z,13.50
2019-04-25T08:06:44.449Z,13.60
2019-04-25T08:09:15.464Z,13.70
2019-04-25T08:11:44.483Z,13.80
2019-04-25T08:14:25.409Z,13.90
2019-04-25T08:16:57.195Z,13.90
2019-04-25T08:19:26.360Z,14.00
2019-04-25T08:21:56.844Z,14.00
2019-04-25T08:24:28.361Z,14.00
2019-04-25T08:26:58.373Z,14.10
2019-04-25T08:29:27.389Z,14.10
2019-04-25T08:31:56.365Z,14.20
2019-04-25T08:34:25.268Z,14.30
2019-04-25T08:36:54.386Z,14.40
2019-04-25T08:39:24.047Z,14.50
2019-04-25T08:41:54.095Z,14.70
2019-04-25T08:44:24.187Z,14.90
2019-04-25T08:46:53.884Z,15.10
2019-04-25T08:49:31.378Z,15.20
2019-04-25T08:52:00.376Z,15.30
2019-04-25T08:54:44.369Z,15.40
2019-04-25T08:57:19.557Z,15.40
2019-04-25T08:59:55.606Z,15.60
2019-04-25T09:02:38.900Z,15.90
2019-04-25T09:05:35.872Z,16.10
2019-04-25T09:08:04.684Z,16.30
2019-04-25T09:10:35.803Z,16.60
2019-04-25T09:13:04.832Z,16.90
2019-04-25T09:15:36.565Z,17.30
2019-04-25T09:18:05.034Z,17.80
2019-04-25T09:20:38.041Z,18.30
2019-04-25T09:23:04.998Z,18.90
2019-04-25T09:25:35.450Z,19.10
2019-04-25T09:28:05.183Z,19.10
2019-04-25T09:30:35.789Z,19.10
2019-04-25T09:33:05.017Z,19.00
2019-04-25T09:35:34.011Z,18.70
2019-04-25T09:38:03.424Z,18.60
2019-04-25T09:40:34.088Z,18.50
2019-04-25T09:43:03.617Z,18.40
2019-04-25T09:45:57.300Z,18.50
2019-04-25T09:48:51.321Z,18.40
2019-04-25T09:51:29.428Z,18.40
2019-04-25T09:54:05.160Z,18.30
2019-04-25T09:56:38.634Z,18.40
2019-04-25T09:59:13.791Z,18.40
2019-04-25T10:01:46.182Z,18.40
2019-04-25T10:04:15.497Z,18.50
2019-04-25T10:06:45.045Z,18.50
2019-04-25T10:09:15.799Z,18.70
2019-04-25T10:11:46.404Z,18.70
2019-04-25T10:14:32.868Z,18.80
2019-04-25T10:17:03.686Z,18.80
2019-04-25T10:19:34.322Z,18.70
2019-04-25T10:22:03.482Z,18.70
2019-04-25T10:24:32.775Z,18.70
2019-04-25T10:27:01.759Z,18.90
2019-04-25T10:29:41.574Z,18.90
2019-04-25T10:32:01.647Z,19.00
2019-04-25T10:34:30.922Z,18.90
2019-04-25T10:36:59.873Z,18.90
2019-04-25T10:39:30.869Z,19.10
2019-04-25T10:42:00.061Z,19.30
2019-04-25T10:44:29.057Z,19.30
2019-04-25T10:46:57.913Z,19.30
2019-04-25T10:49:26.804Z,19.30
2019-04-25T10:51:55.716Z,19.30
2019-04-25T10:54:24.616Z,19.50
2019-04-25T10:56:53.467Z,19.60
2019-04-25T10:59:23.581Z,19.80
2019-04-25T11:01:53.923Z,19.80
2019-04-25T11:04:29.599Z,19.90
2019-04-25T11:06:58.590Z,19.90
2019-04-25T11:09:27.564Z,19.90
2019-04-25T11:11:56.553Z,19.90
2019-04-25T11:14:27.787Z,19.80
2019-04-25T11:16:56.627Z,19.80
2019-04-25T11:19:25.628Z,19.80
2019-04-25T11:21:54.721Z,20.00
2019-04-25T11:24:23.920Z,20.10
2019-04-25T11:26:55.172Z,20.10
2019-04-25T11:29:24.106Z,20.20
2019-04-25T11:31:53.604Z,20.40
2019-04-25T11:34:22.947Z,20.60
2019-04-25T11:36:52.158Z,20.90
2019-04-25T11:39:46.066Z,20.90
2019-04-25T11:42:15.931Z,21.00
2019-04-25T11:44:45.626Z,20.80
2019-04-25T11:47:15.530Z,20.80
2019-04-25T11:49:46.356Z,21.00
2019-04-25T11:52:26.987Z,21.20
2019-04-25T11:54:46.854Z,21.40
2019-04-25T11:57:16.407Z,21.50
2019-04-25T11:59:47.941Z,21.60
2019-04-25T12:02:17.716Z,21.60
2019-04-25T12:04:47.770Z,21.60
2019-04-25T12:07:17.572Z,21.60
2019-04-25T12:09:46.878Z,21.50
2019-04-25T12:12:17.016Z,21.50
2019-04-25T12:14:46.388Z,21.50
2019-04-25T12:17:16.112Z,21.50
2019-04-25T12:19:46.914Z,21.50
2019-04-25T12:22:15.817Z,21.30
2019-04-25T12:24:45.800Z,21.30
2019-04-25T12:27:15.371Z,21.30
2019-04-25T12:29:45.901Z,21.30
2019-04-25T12:32:15.217Z,21.30
2019-04-25T12:34:44.904Z,21.20
2019-04-25T12:37:14.723Z,21.20
2019-04-25T12:39:43.714Z,21.10
2019-04-25T12:42:14.348Z,21.00
2019-04-25T12:44:54.641Z,21.00
2019-04-25T12:47:24.826Z,20.90
2019-04-25T12:49:54.838Z,20.80
2019-04-25T12:52:24.686Z,20.70
2019-04-25T12:54:57.209Z,20.60
2019-04-25T12:57:24.432Z,20.40
2019-04-25T12:59:55.131Z,20.30
2019-04-25T13:02:24.089Z,20.00
2019-04-25T13:04:55.197Z,19.80
2019-04-25T13:07:23.712Z,19.50
2019-04-25T13:09:53.626Z,19.30
2019-04-25T13:12:23.510Z,19.30
2019-04-25T13:14:52.540Z,19.00
2019-04-25T13:17:21.634Z,19.00
2019-04-25T13:19:50.674Z,19.00
2019-04-25T13:22:19.796Z,18.90
2019-04-25T13:24:48.701Z,18.80
2019-04-25T13:27:25.644Z,18.60
2019-04-25T13:30:24.249Z,18.30
2019-04-25T13:33:09.497Z,17.90
2019-04-25T13:35:44.792Z,17.50
2019-04-25T13:38:13.723Z,17.30
2019-04-25T13:40:42.719Z,17.10
2019-04-25T13:43:11.645Z,17.00
2019-04-25T13:45:40.561Z,16.90
2019-04-25T13:48:10.072Z,16.80
2019-04-25T13:50:39.042Z,16.70
2019-04-25T13:53:07.932Z,16.60
2019-04-25T13:55:36.876Z,16.50
2019-04-25T13:58:06.744Z,16.40
2019-04-25T14:00:36.397Z,16.30
2019-04-25T14:03:05.694Z,16.30
2019-04-25T14:05:35.347Z,16.20
2019-04-25T14:08:04.748Z,16.20
2019-04-25T14:10:34.358Z,16.10
2019-04-25T14:13:04.239Z,16.10
2019-04-25T14:15:34.372Z,16.20
2019-04-25T14:18:17.411Z,16.20
2019-04-25T14:20:51.030Z,16.10
2019-04-25T14:23:20.617Z,16.00
2019-04-25T14:25:50.583Z,15.90
2019-04-25T14:28:19.595Z,15.90
2019-04-25T14:30:48.578Z,15.90
2019-04-25T14:33:17.545Z,16.00
2019-04-25T14:35:46.521Z,16.10
2019-04-25T14:38:15.518Z,16.10
2019-04-25T14:40:45.639Z,16.10
2019-04-25T14:43:14.652Z,16.10
2019-04-25T14:45:45.100Z,16.10
2019-04-25T14:48:14.698Z,16.10
2019-04-25T14:50:43.615Z,16.10
2019-04-25T14:53:12.461Z,16.10
2019-04-25T14:56:18.366Z,16.10
2019-04-25T14:58:47.445Z,16.20
2019-04-25T15:01:18.684Z,16.40
2019-04-25T15:03:47.664Z,16.40
2019-04-25T15:06:16.605Z,16.40
2019-04-25T15:08:45.512Z,16.40
2019-04-25T15:11:14.433Z,16.40
2019-04-25T15:13:43.392Z,16.50
2019-04-25T15:16:12.600Z,16.60
2019-04-25T15:18:46.914Z,16.70
2019-04-25T15:21:12.535Z,16.90
2019-04-25T15:23:41.455Z,16.90
2019-04-25T15:26:10.462Z,17.10
2019-04-25T15:28:39.472Z,17.10
2019-04-25T15:31:08.477Z,17.20
2019-04-25T15:33:37.569Z,17.60
2019-04-25T15:36:18.195Z,17.90
2019-04-25T15:38:59.745Z,18.10
2019-04-25T15:41:56.504Z,18.20
2019-04-25T15:45:02.353Z,18.30
2019-04-25T15:47:32.182Z,18.60
2019-04-25T15:50:01.041Z,18.70
2019-04-25T15:52:31.044Z,18.70
2019-04-25T15:55:06.867Z,18.80
2019-04-25T15:57:30.927Z,18.60
2019-04-25T15:59:59.882Z,18.40
2019-04-25T16:02:28.954Z,18.20
2019-04-25T16:04:57.884Z,18.00
2019-04-25T16:07:27.219Z,17.90
2019-04-25T16:09:56.423Z,17.90
2019-04-25T16:12:26.514Z,17.80
2019-04-25T16:14:56.296Z,17.70
2019-04-25T16:17:27.084Z,17.70
2019-04-25T16:19:58.912Z,17.60
2019-04-25T16:22:28.015Z,17.40
2019-04-25T16:25:02.529Z,17.30
2019-04-25T16:27:32.371Z,17.30
2019-04-25T16:30:02.149Z,17.40
2019-04-25T16:32:31.081Z,17.40
2019-04-25T16:35:00.047Z,17.50
2019-04-25T16:37:29.192Z,17.50
2019-04-25T16:39:58.532Z,17.50
2019-04-25T16:42:30.243Z,17.40
2019-04-25T16:44:59.423Z,17.40
2019-04-25T16:47:33.677Z,17.30
2019-04-25T16:50:02.576Z,17.40
2019-04-25T16:53:35.576Z,17.50
2019-04-25T16:59:01.902Z,17.60
2019-04-25T17:01:31.632Z,17.50
2019-04-25T17:04:01.420Z,17.40
2019-04-25T17:06:32.192Z,17.40
2019-04-25T17:09:06.738Z,17.20
2019-04-25T17:11:39.313Z,17.10
2019-04-25T17:14:26.669Z,17.00
2019-04-25T17:17:17.543Z,16.80
2019-04-25T17:20:05.572Z,16.70
2019-04-25T17:22:35.107Z,16.60
2019-04-25T17:25:04.590Z,16.50
2019-04-25T17:27:33.628Z,16.30
2019-04-25T17:30:02.619Z,16.30
2019-04-25T17:32:50.440Z,16.20
2019-04-25T17:35:19.346Z,16.10
2019-04-25T17:37:54.849Z,16.10
2019-04-25T17:40:27.228Z,16.00
2019-04-25T17:42:56.198Z,15.90
2019-04-25T17:45:29.670Z,15.80
2019-04-25T17:47:58.659Z,15.70
2019-04-25T17:50:27.571Z,15.70
2019-04-25T17:52:56.581Z,15.60
2019-04-25T17:55:25.569Z,15.60
2019-04-25T17:57:54.440Z,15.50
2019-04-25T18:00:49.088Z,15.40
2019-04-25T18:03:18.948Z,15.30
2019-04-25T18:05:47.871Z,15.30
2019-04-25T18:08:16.879Z,15.20
2019-04-25T18:10:46.294Z,15.20
2019-04-25T18:13:15.421Z,15.10
2019-04-25T18:15:54.626Z,15.10
2019-04-25T18:18:39.185Z,15.10
2019-04-25T18:21:08.520Z,15.00
2019-04-25T18:23:54.839Z,15.00
2019-04-25T18:26:29.170Z,15.00
2019-04-25T18:29:04.546Z,15.00
2019-04-25T18:31:33.594Z,14.90
2019-04-25T18:34:05.607Z,14.90
2019-04-25T18:37:05.835Z,14.90
2019-04-25T18:39:51.945Z,14.80
2019-04-25T18:42:46.168Z,14.80
2019-04-25T18:45:18.987Z,14.70
2019-04-25T18:47:47.997Z,14.50
2019-04-25T18:50:18.749Z,14.50
2019-04-25T18:52:56.929Z,14.40
2019-04-25T18:55:34.844Z,14.40
2019-04-25T18:58:17.672Z,14.40
2019-04-25T19:01:06.123Z,14.30
2019-04-25T19:03:54.184Z,14.40
2019-04-25T19:06:26.508Z,14.40
2019-04-25T19:08:55.559Z,14.40
2019-04-25T19:11:24.586Z,14.40
2019-04-25T19:13:53.651Z,14.30
2019-04-25T19:16:26.508Z,14.30
2019-04-25T19:18:55.444Z,14.30
2019-04-25T19:21:24.521Z,14.30
2019-04-25T19:23:53.539Z,14.20
2019-04-25T19:26:25.534Z,14.20
2019-04-25T19:28:54.555Z,14.20
2019-04-25T19:31:23.623Z,14.10
2019-04-25T19:33:52.649Z,14.10
2019-04-25T19:36:21.609Z,14.10
2019-04-25T19:38:50.613Z,14.00
2019-04-25T19:41:24.916Z,14.00
2019-04-25T19:43:57.353Z,13.90
2019-04-25T19:46:43.248Z,13.80
2019-04-25T19:49:12.282Z,13.70
2019-04-25T19:51:41.791Z,13.70
2019-04-25T19:54:10.995Z,13.70
2019-04-25T19:56:43.841Z,13.60
2019-04-25T19:59:12.931Z,13.60
2019-04-25T20:01:42.655Z,13.50
2019-04-25T20:04:27.082Z,13.50
2019-04-25T20:07:30.506Z,13.40
2019-04-25T20:10:24.422Z,13.40
2019-04-25T20:12:55.017Z,13.30
2019-04-25T20:15:24.170Z,13.30
2019-04-25T20:17:54.240Z,13.30
2019-04-25T20:20:23.474Z,13.30
2019-04-25T20:22:52.480Z,13.30
2019-04-25T20:25:21.557Z,13.30
2019-04-25T20:27:50.790Z,13.20
2019-04-25T20:30:23.268Z,13.20
2019-04-25T20:32:51.364Z,13.10
2019-04-25T20:35:20.539Z,13.10
2019-04-25T20:37:49.525Z,13.10
2019-04-25T20:40:18.583Z,13.10
2019-04-25T20:42:48.052Z,13.10
2019-04-25T20:45:18.028Z,13.10
2019-04-25T20:47:47.862Z,13.10
2019-04-25T20:50:17.189Z,13.10
2019-04-25T20:52:46.324Z,13.00
2019-04-25T20:55:16.520Z,13.00
2019-04-25T20:57:45.452Z,13.00
2019-04-25T21:00:20.511Z,12.90
2019-04-25T21:02:49.818Z,12.90
2019-04-25T21:05:18.784Z,12.90
2019-04-25T21:07:47.748Z,12.90
2019-04-25T21:10:16.744Z,12.80
2019-04-25T21:12:45.620Z,12.80
2019-04-25T21:15:43.565Z,12.80
2019-04-25T21:18:23.324Z,12.70
2019-04-25T21:20:53.209Z,12.70
2019-04-25T21:23:22.535Z,12.70
2019-04-25T21:25:52.686Z,12.70
2019-04-25T21:28:22.235Z,12.70
2019-04-25T21:30:51.373Z,12.60
2019-04-25T21:33:23.891Z,12.60
2019-04-25T21:35:53.309Z,12.60
2019-04-25T21:38:22.759Z,12.60
2019-04-25T21:40:58.491Z,12.60
2019-04-25T21:43:30.631Z,12.60
2019-04-25T21:46:00.682Z,12.60
2019-04-25T21:48:30.192Z,12.50
2019-04-25T21:51:05.256Z,12.50
2019-04-25T21:53:35.877Z,12.50
2019-04-25T21:56:09.324Z,12.50
2019-04-25T21:58:38.458Z,12.50
2019-04-25T22:01:20.160Z,12.50
2019-04-25T22:03:50.806Z,12.50
2019-04-25T22:06:27.918Z,12.50
2019-04-25T22:11:57.327Z,12.40
2019-04-25T22:14:44.158Z,12.40
2019-04-25T22:17:26.352Z,12.40
2019-04-25T22:19:55.665Z,12.40
2019-04-25T22:22:26.008Z,12.30
2019-04-25T22:24:55.029Z,12.30
2019-04-25T22:27:29.718Z,12.30
2019-04-25T22:30:17.562Z,12.30
2019-04-25T22:33:03.652Z,12.30
2019-04-25T22:35:54.156Z,12.20
2019-04-25T22:38:23.471Z,12.20
2019-04-25T22:40:52.415Z,12.20
2019-04-25T22:43:24.757Z,12.20
2019-04-25T22:45:54.049Z,12.20
2019-04-25T22:48:45.088Z,12.20
2019-04-25T22:51:14.157Z,12.20
2019-04-25T22:53:47.910Z,12.20
2019-04-25T22:56:16.956Z,12.10
2019-04-25T22:58:45.947Z,12.10
2019-04-25T23:01:33.039Z,12.10
2019-04-25T23:04:05.924Z,12.10
2019-04-25T23:06:34.954Z,12.10
2019-04-25T23:09:06.058Z,12.00
2019-04-25T23:11:35.346Z,12.00
2019-04-25T23:14:04.854Z,11.90
2019-04-25T23:16:34.570Z,11.90
2019-04-25T23:19:04.333Z,11.80
2019-04-25T23:21:34.317Z,11.80
2019-04-25T23:24:03.436Z,11.70
2019-04-25T23:26:41.578Z,11.70
2019-04-25T23:29:10.588Z,11.70
2019-04-25T23:31:40.128Z,11.60
2019-04-25T23:34:10.765Z,11.60
2019-04-25T23:36:40.083Z,11.60
2019-04-25T23:39:11.219Z,11.50
2019-04-25T23:41:40.471Z,11.50
2019-04-25T23:44:10.106Z,11.50
2019-04-25T23:46:39.826Z,11.40
2019-04-25T23:49:08.823Z,11.30
2019-04-25T23:51:37.783Z,11.30
2019-04-25T23:54:07.588Z,11.20
2019-04-25T23:56:37.723Z,11.20
2019-04-25T23:59:08.392Z,11.20
